Time;durP1;ratioP1;P1;durP2;ratioP2;P2;SDS_P1;SDS_P2;PMS_P1;PMS_P2;Temp;Humidity;BMP_temperature;BMP_pressure;BME280_temperature;BME280_humidity;BME280_pressure;Samples;Min_cycle;Max_cycle;Signal;HPM_P1;HPM_P2
2022/03/17 00:02:15;;;;;;;129.43;70.88;;;;;;;5.16;70.30;101604.41;5036233;28;20032;-74
2022/03/17 00:04:40;;;;;;;138.07;75.00;;;;;;;5.17;69.99;101606.03;5018262;28;20444;-74
2022/03/17 00:07:07;;;;;;;137.20;73.78;;;;;;;5.15;70.23;101595.13;5018201;28;20124;-74
2022/03/17 00:09:34;;;;;;;134.45;75.60;;;;;;;5.16;69.82;101602.41;5036076;28;20025;-73
2022/03/17 00:12:00;;;;;;;137.60;75.07;;;;;;;5.18;70.28;101591.47;5035922;28;20022;-73
2022/03/17 00:14:28;;;;;;;129.07;74.65;;;;;;;5.17;70.04;101592.72;5035608;28;20029;-74
2022/03/17 00:16:55;;;;;;;149.57;76.18;;;;;;;5.14;70.21;101599.16;5018283;28;20108;-73
2022/03/17 00:19:21;;;;;;;141.02;75.85;;;;;;;5.09;70.29;101590.31;5018465;28;20048;-74
2022/03/17 00:21:48;;;;;;;136.18;73.72;;;;;;;5.10;69.98;101591.94;5035880;28;20493;-74
2022/03/17 00:24:14;;;;;;;131.15;74.25;;;;;;;5.04;70.09;101590.72;5035581;28;20030;-74
2022/03/17 00:26:40;;;;;;;140.35;76.80;;;;;;;5.02;70.16;101594.00;5035592;28;20485;-73
2022/03/17 00:29:07;;;;;;;155.95;81.63;;;;;;;5.03;70.94;101594.78;5034243;28;20026;-74
2022/03/17 00:31:37;;;;;;;150.07;78.50;;;;;;;4.99;70.94;101591.16;5035569;28;20029;-74
2022/03/17 00:34:06;;;;;;;147.57;79.35;;;;;;;4.94;70.53;101592.38;5034584;28;20033;-74
2022/03/17 00:36:36;;;;;;;146.02;79.18;;;;;;;4.89;70.88;101592.00;5017941;28;20509;-76
2022/03/17 00:39:05;;;;;;;155.57;80.05;;;;;;;4.83;70.84;101596.47;5035931;28;20021;-75
2022/03/17 00:41:32;;;;;;;156.95;82.47;;;;;;;4.76;70.63;101594.47;5036776;28;20032;-75
2022/03/17 00:43:59;;;;;;;176.48;84.50;;;;;;;4.53;70.86;101569.56;5034122;28;20112;-75
2022/03/17 00:46:25;;;;;;;166.55;83.80;;;;;;;4.67;71.48;101594.91;5035189;28;20028;-74
2022/03/17 00:48:53;;;;;;;156.75;83.88;;;;;;;4.62;71.93;101600.16;5035119;28;20033;-74
2022/03/17 00:51:19;;;;;;;171.98;85.50;;;;;;;4.59;71.80;101606.59;5035371;28;20113;-75
2022/03/17 00:53:46;;;;;;;167.38;83.97;;;;;;;4.55;72.01;101614.25;5035410;28;20152;-73
2022/03/17 00:56:12;;;;;;;167.85;84.38;;;;;;;4.47;72.29;101621.13;5037316;28;20025;-74
2022/03/17 00:58:39;;;;;;;167.25;87.15;;;;;;;4.46;72.36;101616.69;5037022;28;20125;-74
2022/03/17 01:01:05;;;;;;;163.90;84.88;;;;;;;4.44;71.70;101616.31;5037203;28;20323;-75
2022/03/17 01:03:30;;;;;;;163.13;86.40;;;;;;;4.39;72.15;101602.63;5054701;28;20025;-74
2022/03/17 01:05:56;;;;;;;163.38;87.40;;;;;;;4.41;71.78;101612.28;5065358;28;20086;-73
2022/03/17 01:08:23;;;;;;;171.77;92.70;;;;;;;4.37;72.30;101607.84;5031723;28;20021;-74
2022/03/17 01:10:48;;;;;;;165.90;87.63;;;;;;;4.34;73.24;101615.13;5028926;28;20100;-73
2022/03/17 01:13:14;;;;;;;155.10;84.70;;;;;;;4.31;73.08;101615.91;5043980;28;20404;-73
2022/03/17 01:15:41;;;;;;;154.35;81.53;;;;;;;4.15;73.11;101595.78;5054087;28;20025;-74
2022/03/17 01:18:09;;;;;;;159.45;81.82;;;;;;;4.25;72.65;101629.59;5064891;28;20525;-74
2022/03/17 01:20:34;;;;;;;150.57;79.43;;;;;;;4.22;72.66;101629.63;5066971;28;20092;-72
2022/03/17 01:23:01;;;;;;;149.50;81.90;;;;;;;4.18;73.29;101629.63;5046045;28;20044;-73
2022/03/17 01:25:28;;;;;;;157.00;82.70;;;;;;;4.19;72.99;101628.38;5054946;28;20017;-72
2022/03/17 01:27:54;;;;;;;147.43;80.53;;;;;;;4.18;73.44;101628.81;5036857;28;20031;-73
2022/03/17 01:30:21;;;;;;;159.25;82.85;;;;;;;4.16;73.43;101631.22;5036479;28;20021;-73
2022/03/17 01:32:47;;;;;;;154.13;83.13;;;;;;;4.13;73.37;101630.03;5036623;28;20032;-74
2022/03/17 01:35:14;;;;;;;153.82;81.03;;;;;;;4.08;73.48;101629.63;5054079;28;20100;-73
2022/03/17 01:37:40;;;;;;;156.40;82.90;;;;;;;4.00;73.16;101622.34;5053886;28;20086;-74
2022/03/17 01:40:12;;;;;;;152.07;85.80;;;;;;;3.91;74.01;101605.84;5054324;28;20032;-74
2022/03/17 01:42:39;;;;;;;163.23;86.20;;;;;;;3.88;73.87;101593.38;5036863;28;20048;-73
2022/03/17 01:45:07;;;;;;;157.98;84.32;;;;;;;3.87;74.06;101577.66;5053816;28;20017;-72
2022/03/17 01:47:33;;;;;;;175.75;86.47;;;;;;;3.86;73.70;101573.22;5036208;28;20025;-74
2022/03/17 01:50:13;;;;;;;159.40;82.50;;;;;;;3.88;74.36;101556.75;5036090;28;20055;-73
2022/03/17 01:52:41;;;;;;;155.10;85.30;;;;;;;3.85;74.10;101548.25;5054073;28;20043;-73
2022/03/17 01:55:09;;;;;;;162.93;88.32;;;;;;;3.80;74.41;101546.66;5032089;28;20045;-73
2022/03/17 01:57:36;;;;;;;163.95;84.43;;;;;;;3.78;73.95;101545.47;5033944;28;20025;-73
2022/03/17 02:00:14;;;;;;;164.48;86.10;;;;;;;3.75;74.84;101557.53;5032506;28;20021;-73
2022/03/17 02:02:42;;;;;;;156.05;85.68;;;;;;;3.68;74.11;101563.16;5032790;28;20027;-73
2022/03/17 02:05:09;;;;;;;176.88;92.63;;;;;;;3.63;74.43;101560.75;5032652;28;20033;-73
2022/03/17 02:07:34;;;;;;;160.75;84.53;;;;;;;3.57;74.94;101565.16;5032675;28;20037;-72
2022/03/17 02:10:00;;;;;;;156.65;85.93;;;;;;;3.52;74.87;101579.63;5032917;28;20025;-72
2022/03/17 02:15:18;;;;;;;;;;;;;;;3.35;75.62;101589.66;5033882;28;20489;-72
2022/03/17 02:17:43;;;;;;;161.40;89.20;;;;;;;3.26;74.80;101589.22;5032543;28;19952;-72
2022/03/17 02:20:20;;;;;;;165.95;84.65;;;;;;;3.20;75.20;101588.81;5033513;28;20501;-73
2022/03/17 02:22:50;;;;;;;157.60;83.15;;;;;;;3.15;75.05;101591.22;5032578;28;20064;-72
2022/03/17 02:25:40;;;;;;;160.45;84.38;;;;;;;3.10;75.86;101589.59;5032244;28;20561;-73
2022/03/17 02:28:07;;;;;;;167.25;85.85;;;;;;;3.08;75.79;101577.09;5033720;28;20060;-72
2022/03/17 02:30:37;;;;;;;160.93;90.13;;;;;;;3.08;75.83;101589.16;5032228;28;20426;-73
2022/03/17 02:33:11;;;;;;;164.52;86.93;;;;;;;3.02;76.00;101591.56;5032348;28;20029;-73
2022/03/17 02:35:39;;;;;;;165.60;91.35;;;;;;;2.99;76.00;101585.91;5032229;28;20053;-73
2022/03/17 02:38:05;;;;;;;167.13;85.95;;;;;;;2.97;75.90;101585.50;5033630;28;20022;-73
2022/03/17 02:40:42;;;;;;;167.63;89.15;;;;;;;2.96;76.58;101595.16;5032269;28;20079;-73
2022/03/17 02:43:09;;;;;;;163.82;89.80;;;;;;;2.90;76.77;101611.59;5033386;28;20087;-72
2022/03/17 02:45:35;;;;;;;164.55;85.20;;;;;;;2.90;76.48;101628.50;5031863;28;20022;-73
2022/03/17 02:48:03;;;;;;;164.43;85.97;;;;;;;2.84;76.45;101626.44;5031813;28;20033;-72
2022/03/17 02:50:31;;;;;;;165.88;83.85;;;;;;;2.81;76.15;101627.25;5034112;28;20478;-73
2022/03/17 02:52:59;;;;;;;172.85;88.93;;;;;;;2.82;76.61;101620.38;5032579;28;20040;-73
2022/03/17 02:55:26;;;;;;;164.82;87.70;;;;;;;2.84;77.19;101615.19;5047105;28;20432;-73
2022/03/17 02:57:52;;;;;;;169.95;89.50;;;;;;;2.88;76.82;101613.19;5054441;28;20500;-73
2022/03/17 03:00:19;;;;;;;164.80;86.18;;;;;;;2.88;76.40;101618.81;5057051;28;20373;-72
2022/03/17 03:02:44;;;;;;;168.77;88.15;;;;;;;2.89;76.32;101614.81;5056861;28;20025;-73
2022/03/17 03:05:10;;;;;;;163.63;86.75;;;;;;;2.91;76.29;101618.81;5055709;28;20078;-73
2022/03/17 03:07:37;;;;;;;169.38;87.55;;;;;;;3.02;75.99;101624.50;5056968;28;20021;-73
2022/03/17 03:10:17;;;;;;;182.68;92.55;;;;;;;3.02;76.29;101616.88;5022453;28;20060;-73
2022/03/17 03:12:44;;;;;;;182.52;92.15;;;;;;;2.97;76.32;101619.25;5056861;28;20378;-73
2022/03/17 03:15:10;;;;;;;169.68;88.22;;;;;;;2.92;76.70;101609.19;5039023;28;20040;-73
2022/03/17 03:17:37;;;;;;;168.38;86.07;;;;;;;2.91;76.42;101606.78;5056712;28;20385;-72
2022/03/17 03:20:06;;;;;;;159.85;82.05;;;;;;;2.91;76.81;101618.81;5022596;28;20039;-73
2022/03/17 03:22:37;;;;;;;162.52;83.50;;;;;;;2.87;76.87;101615.19;5056640;28;20107;-73
2022/03/17 03:25:04;;;;;;;164.10;82.65;;;;;;;2.84;76.66;101623.63;5056729;28;20028;-73
2022/03/17 03:27:31;;;;;;;165.85;86.18;;;;;;;2.76;76.80;101622.78;5038817;28;20087;-73
2022/03/17 03:29:58;;;;;;;155.80;84.40;;;;;;;2.64;76.98;101616.69;5038865;28;20051;-72
2022/03/17 03:32:27;;;;;;;166.98;87.00;;;;;;;2.64;77.31;101625.91;5038732;28;20136;-73
2022/03/17 03:34:54;;;;;;;158.35;85.63;;;;;;;2.71;77.03;101627.97;5038882;28;20025;-72
2022/03/17 03:37:25;;;;;;;158.80;83.75;;;;;;;2.78;77.65;101630.81;5038827;28;20055;-72
2022/03/17 03:39:56;;;;;;;172.18;88.40;;;;;;;2.77;77.63;101629.19;5056599;28;20029;-72
2022/03/17 03:42:25;;;;;;;170.88;88.20;;;;;;;2.78;77.46;101631.63;5038528;28;20027;-72
2022/03/17 03:44:59;;;;;;;163.55;86.28;;;;;;;2.78;76.85;101626.00;5021869;28;20116;-73
2022/03/17 03:47:26;;;;;;;169.50;87.43;;;;;;;2.76;76.76;101627.59;5038453;28;20025;-72
2022/03/17 03:49:52;;;;;;;171.52;86.47;;;;;;;2.71;76.70;101627.97;5056101;28;20029;-72
2022/03/17 03:52:18;;;;;;;170.95;86.28;;;;;;;2.62;76.85;101619.88;5056855;28;20025;-73
2022/03/17 03:54:43;;;;;;;172.27;87.47;;;;;;;2.59;77.13;101617.84;5035057;28;20037;-73
2022/03/17 03:57:10;;;;;;;172.98;90.22;;;;;;;2.56;76.96;101624.28;5036012;28;20025;-72
2022/03/17 03:59:36;;;;;;;168.68;85.95;;;;;;;2.51;77.50;101621.84;5036030;28;20021;-73
2022/03/17 04:02:11;;;;;;;178.50;88.85;;;;;;;2.44;77.53;101636.63;5034968;28;20022;-72
2022/03/17 04:04:41;;;;;;;169.10;85.90;;;;;;;2.34;78.10;101648.59;5036103;28;20013;-73
2022/03/17 04:07:09;;;;;;;168.23;86.15;;;;;;;2.30;78.08;101658.22;5035027;28;20030;-73
2022/03/17 04:09:40;;;;;;;167.00;87.00;;;;;;;2.25;78.46;101650.94;5033215;28;20021;-73
2022/03/17 04:12:11;;;;;;;165.02;86.22;;;;;;;2.34;77.97;101662.66;5034800;28;20113;-72
2022/03/17 04:14:52;;;;;;;162.90;83.18;;;;;;;2.33;78.46;101658.22;5036442;28;20017;-72
2022/03/17 04:17:17;;;;;;;171.75;86.32;;;;;;;2.27;78.60;101661.81;5036629;28;20083;-73
2022/03/17 04:19:42;;;;;;;166.90;86.10;;;;;;;2.30;77.82;101667.44;5035232;28;20025;-73
2022/03/17 04:22:08;;;;;;;171.35;83.60;;;;;;;2.29;78.29;101670.66;5036148;28;20026;-72
2022/03/17 04:24:34;;;;;;;172.00;87.93;;;;;;;2.24;78.36;101674.63;5035535;28;20035;-72
2022/03/17 04:26:59;;;;;;;172.63;89.97;;;;;;;2.20;78.33;101682.22;5033954;28;20332;-73
2022/03/17 04:29:25;;;;;;;168.63;84.65;;;;;;;2.15;78.79;101685.38;5035322;28;20095;-73
2022/03/17 04:31:52;;;;;;;170.90;83.63;;;;;;;2.20;78.49;101679.41;5035866;28;20445;-73
2022/03/17 04:34:18;;;;;;;170.63;85.43;;;;;;;2.13;77.83;101652.03;5037816;28;20044;-72
2022/03/17 04:36:44;;;;;;;176.15;86.63;;;;;;;2.30;77.97;101678.69;5035918;28;20116;-72
2022/03/17 04:39:13;;;;;;;175.48;86.97;;;;;;;2.23;78.30;101675.00;5035332;28;20025;-73
2022/03/17 04:41:39;;;;;;;174.88;86.90;;;;;;;2.23;78.03;101689.06;5034219;28;20029;-73
2022/03/17 04:44:09;;;;;;;168.15;88.03;;;;;;;2.18;78.39;101693.03;5018261;28;20040;-73
2022/03/17 04:46:36;;;;;;;177.90;87.47;;;;;;;2.16;78.60;101696.25;5035426;28;20347;-73
2022/03/17 04:49:02;;;;;;;168.90;86.68;;;;;;;2.15;78.98;101699.44;5017499;28;20044;-73
2022/03/17 04:51:28;;;;;;;163.70;84.15;;;;;;;2.11;78.83;101702.22;5034032;28;20025;-73
2022/03/17 04:53:55;;;;;;;173.77;88.13;;;;;;;2.09;78.62;101710.22;5036025;28;20026;-73
2022/03/17 04:56:22;;;;;;;175.35;88.40;;;;;;;2.10;79.23;101716.66;5055019;28;20381;-72
2022/03/17 04:58:47;;;;;;;170.43;86.43;;;;;;;2.10;78.92;101725.09;5037446;28;20033;-74
2022/03/17 05:01:15;;;;;;;171.63;85.93;;;;;;;2.13;79.01;101727.09;5036791;28;20481;-73
2022/03/17 05:03:49;;;;;;;164.05;85.05;;;;;;;2.11;78.96;101737.94;5020530;28;20041;-73
2022/03/17 05:06:15;;;;;;;172.82;85.70;;;;;;;2.11;79.02;101737.94;5019050;28;20017;-73
2022/03/17 05:08:42;;;;;;;166.75;84.47;;;;;;;2.12;78.93;101750.81;5017202;28;20030;-73
2022/03/17 05:11:09;;;;;;;160.57;83.05;;;;;;;2.13;78.89;101752.41;5017402;28;20114;-73
2022/03/17 05:13:37;;;;;;;154.65;81.60;;;;;;;2.13;79.11;101750.41;5036702;28;20029;-73
2022/03/17 05:16:07;;;;;;;164.77;82.50;;;;;;;2.15;78.61;101756.44;5036708;28;20392;-74
2022/03/17 05:18:34;;;;;;;160.52;83.50;;;;;;;2.17;79.08;101753.25;5036370;28;20028;-73
2022/03/17 05:21:01;;;;;;;171.27;86.20;;;;;;;2.24;78.64;101747.69;5036105;28;20021;-73
2022/03/17 05:23:26;;;;;;;165.93;82.28;;;;;;;2.32;78.49;101762.66;5020034;28;20029;-72
2022/03/17 05:25:52;;;;;;;172.38;86.75;;;;;;;2.39;78.61;101763.50;5036388;28;20489;-73
2022/03/17 05:28:18;;;;;;;165.93;84.93;;;;;;;2.45;78.48;101759.16;5036366;28;20025;-73
2022/03/17 05:30:45;;;;;;;161.00;84.07;;;;;;;2.57;78.57;101769.28;5036244;28;20489;-74
2022/03/17 05:33:12;;;;;;;159.38;84.90;;;;;;;2.71;78.24;101765.81;5036069;28;20394;-74
2022/03/17 05:35:39;;;;;;;162.57;82.40;;;;;;;2.84;78.13;101773.53;5019528;28;20053;-73
2022/03/17 05:38:04;;;;;;;160.68;86.43;;;;;;;3.00;78.04;101781.69;5019668;28;20036;-73
2022/03/17 05:40:45;;;;;;;161.93;85.00;;;;;;;3.18;77.43;101779.00;5054472;28;20021;-72
2022/03/17 05:43:11;;;;;;;171.35;88.55;;;;;;;3.39;76.92;101785.59;5054921;28;20021;-75
2022/03/17 05:45:40;;;;;;;182.73;85.35;;;;;;;3.62;76.32;101781.66;5037052;28;20017;-73
2022/03/17 05:48:07;;;;;;;159.30;83.25;;;;;;;3.79;75.49;101784.56;5020152;28;20033;-73
2022/03/17 05:50:40;;;;;;;153.27;82.53;;;;;;;3.96;75.17;101788.66;5021021;28;20053;-73
2022/03/17 05:53:07;;;;;;;160.60;84.50;;;;;;;4.14;74.95;101792.34;5037187;28;20119;-73
2022/03/17 05:55:33;;;;;;;153.00;82.60;;;;;;;4.38;74.33;101787.16;5016633;28;20132;-74
2022/03/17 05:58:00;;;;;;;161.48;80.32;;;;;;;4.64;73.59;101786.75;5033110;28;20063;-73
2022/03/17 06:00:27;;;;;;;153.38;82.55;;;;;;;4.84;72.43;101778.72;5033510;28;20025;-74
2022/03/17 06:02:53;;;;;;;154.70;82.85;;;;;;;5.11;72.33;101794.03;5017390;28;20484;-74
2022/03/17 06:05:20;;;;;;;160.50;85.95;;;;;;;5.39;70.90;101793.16;5034147;28;20108;-74
2022/03/17 06:07:48;;;;;;;144.65;80.80;;;;;;;5.88;69.95;101795.06;5043549;28;20040;-75
2022/03/17 06:10:41;;;;;;;145.88;78.50;;;;;;;6.42;68.73;101793.56;5026478;28;20029;-72
2022/03/17 06:13:07;;;;;;;140.93;76.38;;;;;;;6.81;66.93;101794.09;5041865;28;20029;-71
2022/03/17 06:15:34;;;;;;;146.90;76.85;;;;;;;7.08;66.74;101805.59;5035785;28;20030;-73
2022/03/17 06:18:04;;;;;;;141.10;76.10;;;;;;;7.26;65.72;101796.94;5034475;28;20111;-72
2022/03/17 06:20:32;;;;;;;139.75;77.45;;;;;;;7.58;65.22;101811.59;5043987;28;20075;-72
2022/03/17 06:22:59;;;;;;;130.85;74.45;;;;;;;8.21;64.19;101807.16;5045564;28;20017;-73
2022/03/17 06:25:26;;;;;;;132.18;72.68;;;;;;;9.10;61.14;101797.31;5031300;28;20376;-71
2022/03/17 06:27:55;;;;;;;126.45;71.03;;;;;;;9.99;57.93;101799.25;5028043;28;20044;-73
2022/03/17 06:30:24;;;;;;;123.22;71.45;;;;;;;10.22;56.44;101792.69;5029450;28;20402;-73
2022/03/17 06:32:50;;;;;;;120.82;71.18;;;;;;;10.42;55.58;101795.50;5031965;28;20029;-72
2022/03/17 06:35:25;;;;;;;114.82;68.95;;;;;;;10.57;55.19;101777.63;5021780;28;20034;-73
2022/03/17 06:37:58;;;;;;;112.10;67.95;;;;;;;10.92;52.91;101795.94;5013226;28;20072;-74
2022/03/17 06:40:25;;;;;;;129.98;69.57;;;;;;;11.31;52.65;101794.91;5012010;28;20121;-73
2022/03/17 06:42:51;;;;;;;107.45;65.03;;;;;;;12.35;50.27;101782.97;4996263;28;20061;-74
2022/03/17 06:45:31;;;;;;;114.38;69.32;;;;;;;14.02;45.34;101786.66;5012539;28;20025;-73
2022/03/17 06:47:58;;;;;;;117.25;68.75;;;;;;;14.64;43.23;101775.25;5013769;28;20052;-73
2022/03/17 06:50:23;;;;;;;117.10;66.60;;;;;;;14.63;43.07;101780.19;5012157;28;20467;-72
2022/03/17 06:52:51;;;;;;;115.65;67.90;;;;;;;13.65;43.12;101791.31;5012421;28;20034;-73
2022/03/17 06:55:19;;;;;;;107.22;68.05;;;;;;;12.57;44.53;101790.91;5012328;28;20076;-72
2022/03/17 06:57:45;;;;;;;112.45;70.22;;;;;;;11.49;47.59;101792.41;5022841;28;20037;-73
2022/03/17 07:00:16;;;;;;;129.02;73.63;;;;;;;10.76;49.60;101791.00;5033177;28;20029;-72
2022/03/17 07:02:42;;;;;;;111.80;70.78;;;;;;;10.44;50.50;101798.72;5033589;28;20466;-72
2022/03/17 07:05:09;;;;;;;118.80;70.95;;;;;;;10.32;52.14;101801.00;5031683;28;20044;-72
2022/03/17 07:07:36;;;;;;;124.20;71.20;;;;;;;10.33;51.27;101799.75;5032138;28;20115;-74
2022/03/17 07:10:06;;;;;;;125.35;72.13;;;;;;;10.28;51.11;101808.00;5014944;28;20082;-73
2022/03/17 07:12:33;;;;;;;124.82;73.35;;;;;;;10.12;51.53;101808.72;5031930;28;20044;-72
2022/03/17 07:15:01;;;;;;;118.40;71.18;;;;;;;10.05;52.33;101808.09;5015544;28;20088;-74
2022/03/17 07:17:26;;;;;;;124.32;69.70;;;;;;;10.09;51.33;101812.47;5031413;28;20470;-73
2022/03/17 07:20:01;;;;;;;127.07;71.63;;;;;;;10.06;51.68;101810.50;5031736;28;20025;-73
2022/03/17 07:22:41;;;;;;;118.25;72.15;;;;;;;10.12;52.49;101796.53;5032113;28;20095;-73
2022/03/17 07:25:09;;;;;;;121.35;70.35;;;;;;;10.24;51.54;101805.25;5015185;28;20017;-74
2022/03/17 07:27:44;;;;;;;118.63;69.85;;;;;;;10.24;51.66;101804.44;5016881;28;20029;-72
2022/03/17 07:30:39;;;;;;;126.03;71.10;;;;;;;10.20;51.65;101804.53;5015635;28;20095;-75
2022/03/17 07:33:05;;;;;;;123.05;70.82;;;;;;;10.25;51.38;101804.03;5029041;28;20041;-73
2022/03/17 07:35:30;;;;;;;118.85;70.70;;;;;;;10.46;51.50;101814.13;5030697;28;20037;-73
2022/03/17 07:37:58;;;;;;;125.18;71.32;;;;;;;10.64;50.95;101810.88;5031087;28;20032;-72
2022/03/17 07:40:26;;;;;;;128.40;74.05;;;;;;;10.83;51.40;101807.97;5031180;28;20053;-74
2022/03/17 07:42:51;;;;;;;120.38;72.25;;;;;;;11.05;50.46;101798.88;5032439;28;20061;-71
2022/03/17 07:45:18;;;;;;;124.00;72.38;;;;;;;11.21;50.40;101816.78;5035823;28;20474;-73
2022/03/17 07:47:49;;;;;;;114.90;68.75;;;;;;;11.23;49.57;101820.00;5021831;28;20033;-75
2022/03/17 07:50:15;;;;;;;113.63;71.38;;;;;;;11.13;49.60;101812.50;5036149;28;20116;-73
2022/03/17 07:52:42;;;;;;;127.97;71.93;;;;;;;10.98;49.59;101816.16;5025642;28;20487;-72
2022/03/17 07:55:08;;;;;;;120.53;71.78;;;;;;;10.92;49.15;101820.78;5014701;28;20058;-71
2022/03/17 07:57:35;;;;;;;117.97;69.50;;;;;;;10.97;49.89;101821.06;5015084;28;20058;-72
2022/03/17 08:00:01;;;;;;;117.28;68.78;;;;;;;11.06;49.97;101821.22;4998986;28;20033;-71
2022/03/17 08:02:26;;;;;;;123.65;70.22;;;;;;;11.13;48.13;101821.06;5014508;28;20153;-70
2022/03/17 08:04:53;;;;;;;124.53;71.75;;;;;;;11.00;49.01;101834.41;4997952;28;20470;-71
2022/03/17 08:07:19;;;;;;;125.72;73.88;;;;;;;10.89;49.41;101822.47;5014242;28;20030;-72
2022/03/17 08:09:45;;;;;;;123.78;72.18;;;;;;;11.02;49.36;101822.56;5023736;28;20032;-70
2022/03/17 08:12:11;;;;;;;119.88;72.85;;;;;;;11.01;49.16;101826.66;5035125;28;20362;-70
2022/03/17 08:14:36;;;;;;;125.20;71.80;;;;;;;10.96;49.46;101798.69;5033830;28;20045;-72
2022/03/17 08:17:02;;;;;;;133.75;73.10;;;;;;;11.26;49.29;101821.13;5035292;28;20032;-71
2022/03/17 08:19:28;;;;;;;125.43;75.05;;;;;;;11.35;48.91;101815.59;5035567;28;20033;-71
2022/03/17 08:21:54;;;;;;;124.90;73.32;;;;;;;11.57;48.28;101815.84;5035379;28;20025;-70
2022/03/17 08:24:20;;;;;;;118.97;73.60;;;;;;;11.60;48.58;101814.94;5033213;28;20048;-72
2022/03/17 08:26:46;;;;;;;112.25;69.32;;;;;;;11.65;47.04;101806.63;5015283;28;20026;-71
2022/03/17 08:29:12;;;;;;;121.47;69.88;;;;;;;11.59;47.54;101810.50;5013978;28;20092;-71
2022/03/17 08:31:37;;;;;;;117.43;69.43;;;;;;;11.75;46.77;101818.22;5015273;28;20018;-70
2022/03/17 08:34:03;;;;;;;120.30;70.32;;;;;;;11.81;46.08;101822.13;5014602;28;20049;-70
2022/03/17 08:36:28;;;;;;;113.97;72.22;;;;;;;11.85;45.39;101817.94;5013965;28;20115;-69
2022/03/17 08:38:54;;;;;;;113.50;69.57;;;;;;;11.98;45.40;101810.22;4996915;28;20041;-70
2022/03/17 08:41:20;;;;;;;128.95;67.72;;;;;;;12.00;45.01;101807.69;4998026;28;20044;-71
2022/03/17 08:43:46;;;;;;;115.05;71.47;;;;;;;12.08;45.70;101817.69;5013719;28;20466;-69
2022/03/17 08:51:39;;;;;;;113.57;66.90;;;;;;;12.33;44.37;101816.94;5013496;28;20040;-73
2022/03/17 08:54:05;;;;;;;119.45;73.55;;;;;;;12.27;44.51;101821.63;5036428;28;20021;-74
2022/03/17 08:56:32;;;;;;;112.07;70.93;;;;;;;12.26;44.22;101819.19;5040858;28;20130;-72
2022/03/17 08:58:58;;;;;;;119.85;71.35;;;;;;;12.23;44.42;101815.22;5042275;28;20364;-71
2022/03/17 09:01:25;;;;;;;113.78;71.22;;;;;;;12.48;44.25;101817.31;5015205;28;20470;-72
2022/03/17 09:03:52;;;;;;;124.60;71.53;;;;;;;12.74;44.87;101818.09;5028995;28;20029;-72
2022/03/17 09:06:17;;;;;;;115.22;70.50;;;;;;;13.09;43.20;101814.09;5025463;28;20465;-72
2022/03/17 09:08:44;;;;;;;115.20;69.70;;;;;;;13.18;42.57;101825.66;5033806;28;20116;-74
2022/03/17 09:11:13;;;;;;;114.90;68.10;;;;;;;13.05;41.58;101826.91;5029657;28;20084;-71
2022/03/17 09:13:39;;;;;;;109.80;68.05;;;;;;;12.82;42.52;101825.22;5015932;28;20117;-72
2022/03/17 09:16:06;;;;;;;109.65;66.15;;;;;;;12.84;42.51;101837.78;5035912;28;20029;-71
2022/03/17 09:18:31;;;;;;;113.68;67.65;;;;;;;12.68;42.65;101840.75;5036256;28;20083;-71
2022/03/17 09:20:59;;;;;;;117.28;68.63;;;;;;;12.59;43.12;101834.09;5036215;28;20478;-70
2022/03/17 09:23:29;;;;;;;115.82;67.57;;;;;;;12.60;43.05;101839.38;5054049;28;20024;-71
2022/03/17 09:25:55;;;;;;;102.85;67.65;;;;;;;12.68;43.62;101826.44;5053610;28;20461;-72
2022/03/17 09:28:22;;;;;;;111.90;68.18;;;;;;;12.95;43.68;101826.00;5016661;28;20055;-72
2022/03/17 09:30:50;;;;;;;112.88;69.75;;;;;;;13.15;42.89;101832.31;5041210;28;20029;-73
2022/03/17 09:33:18;;;;;;;103.10;65.03;;;;;;;13.32;42.46;101828.03;5051755;28;20099;-73
2022/03/17 09:35:43;;;;;;;106.47;64.55;;;;;;;13.48;42.79;101829.94;5032862;28;20479;-72
2022/03/17 09:38:09;;;;;;;99.15;64.07;;;;;;;13.66;40.98;101832.22;5052498;28;20123;-71
2022/03/17 09:40:36;;;;;;;104.07;64.63;;;;;;;13.61;41.13;101825.00;5053386;28;20338;-75
2022/03/17 09:43:19;;;;;;;101.85;61.00;;;;;;;13.68;39.87;101833.31;5036336;28;20060;-72
2022/03/17 09:45:52;;;;;;;98.25;60.08;;;;;;;13.59;39.35;101830.38;5038593;28;20059;-74
2022/03/17 09:48:18;;;;;;;97.72;59.60;;;;;;;13.58;39.81;101837.38;5018847;28;20390;-71
2022/03/17 09:50:47;;;;;;;100.47;58.80;;;;;;;13.59;40.09;101832.44;5018811;28;20033;-70
2022/03/17 09:53:13;;;;;;;93.50;59.58;;;;;;;13.72;40.33;101836.84;5035471;28;20033;-69
2022/03/17 09:55:43;;;;;;;90.18;58.08;;;;;;;14.00;39.91;101828.50;5018663;28;20135;-68
2022/03/17 09:58:10;;;;;;;88.82;53.42;;;;;;;14.22;39.50;101832.97;5036191;28;20104;-69
2022/03/17 10:00:49;;;;;;;80.72;51.17;;;;;;;14.39;37.62;101822.13;5018384;28;20362;-70
2022/03/17 10:03:25;;;;;;;82.20;51.28;;;;;;;14.46;37.22;101824.69;5022512;28;20064;-70
2022/03/17 10:05:58;;;;;;;88.00;55.65;;;;;;;14.62;38.49;101827.34;5052923;28;20025;-69
2022/03/17 10:08:25;;;;;;;90.85;56.25;;;;;;;14.72;38.45;101839.66;5052105;28;20063;-69
2022/03/17 10:10:52;;;;;;;87.70;53.92;;;;;;;14.91;37.83;101823.31;5034585;28;20386;-70
2022/03/17 10:13:43;;;;;;;93.10;53.35;;;;;;;15.12;37.10;101834.72;5053301;28;20032;-70
2022/03/17 10:16:15;;;;;;;78.13;48.35;;;;;;;15.23;36.27;101836.34;5041590;28;20036;-71
2022/03/17 10:18:40;;;;;;;;;;;;;;;15.27;34.63;101825.53;5053782;28;20112;-74
2022/03/17 10:21:24;;;;;;;63.93;40.53;;;;;;;15.00;32.74;101840.56;5053010;28;19952;-74
2022/03/17 10:24:06;;;;;;;72.57;46.97;;;;;;;14.72;34.17;101825.31;5034671;28;20276;-73
2022/03/17 10:26:51;;;;;;;84.85;49.45;;;;;;;14.75;35.26;101849.41;5034860;28;20029;-72
2022/03/17 10:29:29;;;;;;;74.03;46.08;;;;;;;14.74;34.45;101831.41;5053064;28;20166;-72
2022/03/17 10:32:05;;;;;;;68.75;41.78;;;;;;;14.65;34.34;101845.69;5052690;28;20056;-73
2022/03/17 10:34:33;;;;;;;67.72;39.03;;;;;;;14.82;33.71;101838.44;5033277;28;20035;-73
2022/03/17 10:37:16;;;;;;;56.17;34.20;;;;;;;15.03;32.29;101836.78;5052620;28;20033;-72
2022/03/17 10:39:44;;;;;;;59.60;35.90;;;;;;;15.00;31.62;101843.44;5052553;28;20420;-74
2022/03/17 10:42:15;;;;;;;60.17;36.63;;;;;;;15.00;30.92;101832.75;5052683;28;20036;-72
2022/03/17 10:44:42;;;;;;;62.22;34.80;;;;;;;15.08;31.30;101839.03;5052195;28;20136;-72
2022/03/17 10:47:10;;;;;;;60.83;33.22;;;;;;;15.11;30.12;101843.81;5034660;28;20024;-72
2022/03/17 10:49:36;;;;;;;67.63;33.25;;;;;;;14.79;30.99;101835.72;5052600;28;20436;-74
2022/03/17 10:52:02;;;;;;;54.28;32.15;;;;;;;14.62;31.05;101838.00;5034907;28;20489;-75
2022/03/17 10:54:28;;;;;;;52.28;30.08;;;;;;;14.70;30.35;101845.84;5018051;28;20044;-72
2022/03/17 10:56:58;;;;;;;52.35;33.75;;;;;;;14.70;30.68;101840.13;5052445;28;20512;-73
2022/03/17 10:59:35;;;;;;;55.30;33.42;;;;;;;14.61;31.09;101828.59;5052363;28;20032;-74
2022/03/17 11:02:03;;;;;;;54.35;33.30;;;;;;;14.76;30.67;101830.91;5052185;28;20025;-74
2022/03/17 11:04:29;;;;;;;58.67;35.45;;;;;;;14.63;30.76;101840.41;5052343;28;20178;-73
2022/03/17 11:06:54;;;;;;;57.95;33.38;;;;;;;14.69;31.33;101841.41;5052343;28;20033;-73
2022/03/17 11:09:23;;;;;;;56.05;34.97;;;;;;;14.89;31.16;101838.16;5034232;28;20124;-72
2022/03/17 11:11:49;;;;;;;56.17;36.22;;;;;;;14.95;31.12;101839.13;5032417;28;20096;-72
2022/03/17 11:14:14;;;;;;;59.80;36.65;;;;;;;14.74;31.56;101830.59;5014637;28;20029;-71
2022/03/17 11:16:50;;;;;;;50.67;33.95;;;;;;;14.72;31.13;101842.53;4981863;28;20413;-73
2022/03/17 11:19:20;;;;;;;54.35;37.28;;;;;;;14.78;31.37;101843.53;5027220;28;20028;-73
2022/03/17 11:21:49;;;;;;;57.95;36.20;;;;;;;14.86;31.51;101830.47;5055967;28;20031;-71